createdAt,value
2018-05-21T00:01:22.251Z,75.10
2018-05-21T00:03:50.440Z,75.70
2018-05-21T00:06:17.929Z,75.50
2018-05-21T00:08:45.460Z,75.70
2018-05-21T00:11:12.751Z,76.30
2018-05-21T00:13:39.986Z,76.70
2018-05-21T00:16:07.451Z,77.10
2018-05-21T00:18:35.391Z,77.20
2018-05-21T00:21:02.900Z,77.30
2018-05-21T00:23:31.350Z,77.80
2018-05-21T00:25:59.731Z,78.20
2018-05-21T00:28:28.669Z,78.30
2018-05-21T00:30:57.810Z,78.60
2018-05-21T00:33:25.124Z,78.90
2018-05-21T00:35:53.490Z,79.50
2018-05-21T00:38:20.900Z,79.60
2018-05-21T00:40:48.009Z,79.90
2018-05-21T00:43:15.241Z,80.00
2018-05-21T00:45:42.571Z,80.00
2018-05-21T00:48:10.251Z,80.30
2018-05-21T00:50:37.531Z,80.60
2018-05-21T00:53:05.531Z,80.80
2018-05-21T00:55:37.871Z,81.00
2018-05-21T00:58:05.615Z,81.20
2018-05-21T01:00:33.610Z,81.40
2018-05-21T01:03:02.099Z,81.30
2018-05-21T01:05:31.801Z,81.40
2018-05-21T01:07:59.324Z,81.60
2018-05-21T01:10:27.051Z,81.70
2018-05-21T01:12:54.691Z,81.80
2018-05-21T01:15:22.070Z,81.80
2018-05-21T01:17:49.490Z,81.90
2018-05-21T01:20:16.821Z,82.00
2018-05-21T01:22:46.001Z,82.30
2018-05-21T01:25:13.410Z,82.30
2018-05-21T01:27:42.131Z,82.20
2018-05-21T01:30:09.670Z,82.40
2018-05-21T01:32:36.994Z,83.10
2018-05-21T01:35:04.370Z,82.50
2018-05-21T01:37:32.941Z,82.70
2018-05-21T01:40:02.000Z,83.10
2018-05-21T01:42:31.609Z,83.30
2018-05-21T01:45:01.031Z,83.20
2018-05-21T01:47:28.360Z,83.70
2018-05-21T01:49:55.768Z,84.50
2018-05-21T01:52:23.080Z,84.50
2018-05-21T01:54:51.501Z,84.50
2018-05-21T01:57:20.719Z,84.70
2018-05-21T01:59:48.060Z,85.00
2018-05-21T02:02:15.370Z,85.30
2018-05-21T02:04:42.959Z,85.60
2018-05-21T02:07:10.300Z,85.80
2018-05-21T02:09:37.589Z,86.00
2018-05-21T02:12:05.441Z,85.80
2018-05-21T02:14:33.161Z,86.00
2018-05-21T02:17:01.490Z,86.40
2018-05-21T02:19:29.072Z,86.40
2018-05-21T02:21:57.010Z,86.50
2018-05-21T02:24:24.572Z,86.80
2018-05-21T02:26:52.445Z,86.90
2018-05-21T02:29:19.981Z,87.10
2018-05-21T02:31:47.650Z,87.40
2018-05-21T02:34:15.071Z,87.20
2018-05-21T02:36:44.115Z,87.40
2018-05-21T02:39:12.382Z,87.80
2018-05-21T02:41:39.664Z,88.20
2018-05-21T02:44:08.181Z,88.80
2018-05-21T02:46:36.440Z,89.20
2018-05-21T02:49:04.810Z,89.40
2018-05-21T02:51:32.320Z,89.40
2018-05-21T02:54:00.071Z,89.60
2018-05-21T02:56:27.600Z,89.80
2018-05-21T02:58:54.910Z,90.00
2018-05-21T03:01:23.300Z,90.10
2018-05-21T03:03:50.740Z,90.20
2018-05-21T03:06:18.380Z,90.30
2018-05-21T03:08:45.504Z,90.40
2018-05-21T03:11:13.059Z,90.40
2018-05-21T03:13:41.453Z,90.50
2018-05-21T03:16:08.931Z,90.50
2018-05-21T03:18:36.829Z,90.50
2018-05-21T03:21:05.111Z,90.60
2018-05-21T03:23:32.830Z,90.60
2018-05-21T03:26:00.261Z,90.70
2018-05-21T03:28:27.729Z,91.00
2018-05-21T03:30:55.345Z,90.80
2018-05-21T03:33:22.839Z,90.90
2018-05-21T03:35:50.541Z,90.80
2018-05-21T03:38:18.151Z,90.90
2018-05-21T03:40:45.709Z,90.90
2018-05-21T03:43:13.291Z,90.80
2018-05-21T03:45:41.469Z,90.80
2018-05-21T03:48:08.581Z,90.80
2018-05-21T03:50:37.131Z,90.20
2018-05-21T03:53:04.810Z,90.10
2018-05-21T03:55:32.401Z,89.50
2018-05-21T03:57:59.940Z,88.80
2018-05-21T04:00:45.351Z,88.20
2018-05-21T04:06:21.420Z,86.30
2018-05-21T04:08:50.148Z,85.10
2018-05-21T04:11:17.500Z,83.80
2018-05-21T04:13:45.912Z,81.10
2018-05-21T04:16:13.792Z,81.00
2018-05-21T04:18:41.302Z,80.00
2018-05-21T04:21:09.009Z,78.70
2018-05-21T04:23:36.580Z,77.30
2018-05-21T04:26:04.190Z,76.10
2018-05-21T04:28:31.689Z,75.60
2018-05-21T04:30:59.170Z,74.00
2018-05-21T04:33:27.295Z,72.20
2018-05-21T04:35:54.780Z,72.70
2018-05-21T04:38:22.291Z,70.50
2018-05-21T04:40:49.960Z,69.70
2018-05-21T04:43:17.613Z,68.00
2018-05-21T04:45:45.220Z,67.30
2018-05-21T04:48:12.478Z,66.40
2018-05-21T04:50:40.810Z,65.40
2018-05-21T04:53:07.990Z,65.40
2018-05-21T04:55:35.631Z,64.60
2018-05-21T04:58:02.950Z,64.00
2018-05-21T05:00:30.400Z,63.30
2018-05-21T05:02:57.950Z,62.60
2018-05-21T05:05:26.220Z,62.20
2018-05-21T05:07:54.490Z,61.60
2018-05-21T05:10:22.274Z,60.60
2018-05-21T05:12:49.711Z,60.50
2018-05-21T05:15:18.031Z,59.30
2018-05-21T05:17:45.471Z,59.20
2018-05-21T05:20:12.695Z,58.60
2018-05-21T05:22:40.870Z,58.90
2018-05-21T05:25:09.109Z,58.30
2018-05-21T05:27:36.560Z,58.30
2018-05-21T05:30:04.130Z,57.90
2018-05-21T05:32:31.591Z,57.80
2018-05-21T05:34:59.020Z,57.40
2018-05-21T05:37:26.411Z,57.50
2018-05-21T05:39:54.071Z,56.70
2018-05-21T05:42:22.631Z,57.20
2018-05-21T05:44:50.129Z,57.20
2018-05-21T05:47:18.359Z,56.60
2018-05-21T05:49:46.009Z,56.50
2018-05-21T05:52:13.109Z,55.80
2018-05-21T05:54:41.349Z,55.00
2018-05-21T05:57:08.839Z,55.50
2018-05-21T05:59:36.710Z,54.80
2018-05-21T06:02:04.891Z,56.80
2018-05-21T06:04:33.279Z,58.30
2018-05-21T06:07:00.690Z,58.20
2018-05-21T06:09:28.271Z,58.90
2018-05-21T06:11:56.580Z,59.70
2018-05-21T06:14:24.041Z,59.70
2018-05-21T06:16:51.550Z,60.70
2018-05-21T06:19:19.319Z,62.10
2018-05-21T06:21:47.819Z,64.00
2018-05-21T06:24:15.310Z,64.00
2018-05-21T06:26:42.810Z,63.00
2018-05-21T06:29:09.801Z,64.00
2018-05-21T06:31:37.143Z,64.80
2018-05-21T06:34:04.897Z,64.40
2018-05-21T06:36:32.579Z,65.20
2018-05-21T06:39:00.060Z,64.00
2018-05-21T06:41:27.732Z,64.80
2018-05-21T06:43:55.180Z,64.50
2018-05-21T06:46:23.011Z,64.10
2018-05-21T06:48:50.501Z,64.00
2018-05-21T06:51:18.060Z,65.50
2018-05-21T06:53:45.470Z,64.10
2018-05-21T06:56:14.071Z,63.80
2018-05-21T06:58:41.600Z,63.80
2018-05-21T07:01:09.791Z,62.70
2018-05-21T07:03:38.141Z,62.00
2018-05-21T07:06:05.588Z,62.00
2018-05-21T07:08:33.140Z,61.30
2018-05-21T07:11:00.629Z,62.80
2018-05-21T07:13:28.920Z,60.90
2018-05-21T07:15:57.240Z,60.90
2018-05-21T07:18:24.790Z,60.80
2018-05-21T07:20:52.100Z,59.50
2018-05-21T07:23:20.311Z,58.40
2018-05-21T07:25:47.810Z,58.40
2018-05-21T07:28:15.942Z,58.20
2018-05-21T07:30:43.301Z,58.30
2018-05-21T07:33:10.743Z,58.80
2018-05-21T07:35:38.430Z,57.90
2018-05-21T07:38:06.022Z,58.50
2018-05-21T07:40:33.641Z,56.80
2018-05-21T07:43:01.199Z,57.40
2018-05-21T07:45:28.829Z,56.40
2018-05-21T07:47:56.323Z,57.00
2018-05-21T07:50:23.741Z,56.50
2018-05-21T07:52:51.459Z,56.90
2018-05-21T07:55:19.767Z,57.30
2018-05-21T07:57:47.121Z,54.90
2018-05-21T08:00:15.668Z,54.60
2018-05-21T08:02:43.071Z,54.60
2018-05-21T08:05:11.019Z,54.20
2018-05-21T08:07:39.500Z,55.20
2018-05-21T08:10:07.201Z,55.10
2018-05-21T08:12:35.101Z,54.50
2018-05-21T08:15:02.690Z,54.20
2018-05-21T08:17:30.350Z,53.40
2018-05-21T08:19:57.599Z,53.20
2018-05-21T08:22:25.800Z,51.60
2018-05-21T08:24:55.247Z,51.60
2018-05-21T08:27:22.600Z,51.10
2018-05-21T08:29:50.452Z,52.70
2018-05-21T08:32:18.624Z,53.20
2018-05-21T08:34:49.452Z,51.00
2018-05-21T08:37:16.811Z,51.00
2018-05-21T08:39:44.510Z,51.40
2018-05-21T08:42:14.671Z,52.10
2018-05-21T08:44:42.231Z,51.10
2018-05-21T08:47:09.891Z,50.10
2018-05-21T08:49:37.500Z,51.40
2018-05-21T08:52:05.260Z,50.60
2018-05-21T08:54:33.201Z,50.40
2018-05-21T08:57:00.852Z,50.50
2018-05-21T08:59:28.575Z,50.50
2018-05-21T09:01:56.091Z,48.90
2018-05-21T09:04:23.780Z,50.40
2018-05-21T09:06:51.120Z,49.60
2018-05-21T09:09:18.761Z,50.10
2018-05-21T09:11:46.911Z,48.60
2018-05-21T09:14:14.291Z,48.60
2018-05-21T09:16:42.158Z,48.80
2018-05-21T09:19:09.221Z,50.40
2018-05-21T09:21:37.440Z,51.20
2018-05-21T09:24:06.512Z,49.00
2018-05-21T09:26:35.338Z,49.00
2018-05-21T09:29:05.265Z,50.40
2018-05-21T09:31:33.052Z,49.40
2018-05-21T09:34:00.510Z,49.00
2018-05-21T09:36:28.000Z,48.90
2018-05-21T09:38:57.101Z,48.60
2018-05-21T09:41:25.500Z,48.60
2018-05-21T09:43:53.191Z,47.00
2018-05-21T09:46:21.740Z,46.80
2018-05-21T09:48:49.990Z,48.60
2018-05-21T09:51:20.331Z,48.60
2018-05-21T09:53:47.883Z,48.60
2018-05-21T09:56:16.380Z,47.90
2018-05-21T09:58:43.900Z,47.90
2018-05-21T10:01:11.671Z,47.60
2018-05-21T10:03:39.160Z,46.60
2018-05-21T10:06:06.730Z,47.00
2018-05-21T10:08:34.370Z,48.70
2018-05-21T10:11:02.291Z,46.90
2018-05-21T10:13:29.393Z,47.60
2018-05-21T10:15:57.640Z,47.10
2018-05-21T10:18:25.130Z,47.10
2018-05-21T10:20:54.290Z,47.80
2018-05-21T10:23:21.800Z,47.00
2018-05-21T10:25:49.790Z,47.00
2018-05-21T10:28:18.261Z,48.40
2018-05-21T10:30:45.851Z,48.40
2018-05-21T10:33:13.370Z,48.70
2018-05-21T10:35:40.675Z,47.00
2018-05-21T10:38:08.087Z,46.60
2018-05-21T10:40:37.421Z,47.30
2018-05-21T10:43:05.618Z,47.60
2018-05-21T10:45:33.821Z,47.00
2018-05-21T10:48:01.900Z,47.50
2018-05-21T10:50:29.570Z,46.50
2018-05-21T10:52:58.701Z,46.20
2018-05-21T10:55:26.514Z,46.20
2018-05-21T10:57:54.742Z,46.40
2018-05-21T11:00:22.281Z,46.90
2018-05-21T11:02:50.892Z,47.00
2018-05-21T11:05:18.841Z,47.00
2018-05-21T11:07:46.709Z,46.60
2018-05-21T11:10:14.730Z,47.40
2018-05-21T11:12:42.402Z,46.90
2018-05-21T11:15:10.901Z,47.60
2018-05-21T11:17:38.671Z,47.00
2018-05-21T11:20:06.140Z,47.00
2018-05-21T11:22:34.476Z,47.50
2018-05-21T11:25:03.799Z,47.60
2018-05-21T11:27:32.032Z,47.60
2018-05-21T11:29:59.911Z,46.20
2018-05-21T11:32:27.560Z,47.20
2018-05-21T11:34:55.091Z,47.70
2018-05-21T11:37:23.021Z,46.60
2018-05-21T11:39:50.601Z,46.20
2018-05-21T11:42:17.941Z,46.90
2018-05-21T11:44:45.561Z,46.60
2018-05-21T11:47:13.073Z,45.50
2018-05-21T11:49:40.582Z,45.80
2018-05-21T11:52:08.100Z,45.50
2018-05-21T11:54:35.500Z,44.60
2018-05-21T11:57:02.752Z,46.00
2018-05-21T11:59:31.721Z,44.10
2018-05-21T12:01:59.224Z,45.00
2018-05-21T12:04:26.832Z,46.10
2018-05-21T12:06:54.380Z,45.30
2018-05-21T12:09:22.200Z,45.50
2018-05-21T12:11:50.240Z,45.20
2018-05-21T12:14:18.733Z,46.60
2018-05-21T12:16:46.202Z,45.80
2018-05-21T12:19:13.620Z,46.20
2018-05-21T12:21:42.082Z,44.50
2018-05-21T12:24:09.670Z,44.50
2018-05-21T12:26:37.404Z,44.60
2018-05-21T12:29:05.001Z,45.60
2018-05-21T12:31:32.681Z,45.40
2018-05-21T12:34:00.991Z,45.30
2018-05-21T12:36:28.523Z,44.40
2018-05-21T12:38:56.550Z,45.10
2018-05-21T12:41:25.750Z,43.90
2018-05-21T12:43:53.792Z,45.40
2018-05-21T12:46:21.900Z,45.40
2018-05-21T12:48:49.461Z,45.60
2018-05-21T12:51:18.630Z,46.10
2018-05-21T12:53:46.090Z,45.70
2018-05-21T12:56:14.997Z,45.50
2018-05-21T12:58:43.343Z,44.10
2018-05-21T13:01:10.811Z,44.10
2018-05-21T13:03:38.455Z,44.10
2018-05-21T13:06:07.701Z,44.40
2018-05-21T13:08:35.500Z,44.40
2018-05-21T13:11:04.200Z,44.00
2018-05-21T13:13:33.372Z,43.90
2018-05-21T13:16:01.541Z,43.80
2018-05-21T13:18:31.460Z,43.90
2018-05-21T13:20:59.220Z,43.90
2018-05-21T13:23:26.980Z,44.90
2018-05-21T13:25:54.350Z,45.10
2018-05-21T13:28:22.140Z,43.80
2018-05-21T13:30:50.622Z,44.50
2018-05-21T13:33:18.661Z,44.20
2018-05-21T13:35:46.151Z,45.00
2018-05-21T13:38:13.861Z,44.80
2018-05-21T13:40:43.011Z,45.50
2018-05-21T13:43:10.710Z,45.50
2018-05-21T13:45:38.822Z,46.30
2018-05-21T13:48:06.141Z,44.90
2018-05-21T13:50:34.389Z,45.40
2018-05-21T13:53:02.097Z,45.40
2018-05-21T13:55:29.560Z,44.90
2018-05-21T13:57:57.161Z,44.60
2018-05-21T14:00:24.641Z,44.80
2018-05-21T14:02:52.015Z,44.30
2018-05-21T14:05:19.674Z,44.30
2018-05-21T14:07:47.361Z,43.40
2018-05-21T14:10:14.961Z,44.70
2018-05-21T14:12:42.514Z,44.90
2018-05-21T14:15:09.944Z,45.60
2018-05-21T14:17:37.434Z,45.10
2018-05-21T14:20:05.017Z,45.80
2018-05-21T14:22:33.451Z,46.80
2018-05-21T14:25:01.073Z,46.80
2018-05-21T14:27:29.272Z,45.40
2018-05-21T14:29:56.711Z,45.40
2018-05-21T14:32:24.421Z,46.30
2018-05-21T14:34:51.951Z,46.00
2018-05-21T14:37:19.451Z,46.10
2018-05-21T14:39:47.030Z,45.20
2018-05-21T14:42:15.232Z,45.20
2018-05-21T14:44:43.080Z,45.20
2018-05-21T14:47:10.732Z,45.50
2018-05-21T14:49:38.950Z,44.50
2018-05-21T14:52:06.671Z,44.40
2018-05-21T14:54:34.193Z,43.60
2018-05-21T14:57:01.797Z,44.50
2018-05-21T14:59:29.220Z,44.50
2018-05-21T15:01:56.833Z,43.50
2018-05-21T15:04:24.332Z,43.40
2018-05-21T15:06:51.981Z,42.90
2018-05-21T15:09:19.572Z,43.80
2018-05-21T15:11:47.698Z,43.40
2018-05-21T15:14:15.310Z,43.40
2018-05-21T15:16:43.750Z,43.70
2018-05-21T15:19:11.351Z,43.70
2018-05-21T15:21:39.711Z,43.30
2018-05-21T15:24:07.412Z,43.30
2018-05-21T15:26:34.881Z,42.80
2018-05-21T15:29:02.351Z,42.90
2018-05-21T15:31:30.010Z,43.50
2018-05-21T15:33:57.481Z,43.80
2018-05-21T15:36:25.000Z,44.60
2018-05-21T15:38:52.830Z,43.60
2018-05-21T15:41:20.330Z,42.90
2018-05-21T15:43:48.010Z,42.90
2018-05-21T15:46:15.542Z,42.80
2018-05-21T15:48:43.436Z,42.60
2018-05-21T15:51:10.922Z,42.60
2018-05-21T15:53:38.190Z,43.50
2018-05-21T15:56:06.500Z,43.70
2018-05-21T15:58:33.986Z,43.70
2018-05-21T16:01:01.116Z,43.50
2018-05-21T16:03:28.530Z,43.30
2018-05-21T16:05:56.851Z,43.30
2018-05-21T16:08:24.383Z,43.20
2018-05-21T16:10:51.970Z,43.80
2018-05-21T16:13:19.491Z,42.90
2018-05-21T16:15:47.650Z,43.30
2018-05-21T16:18:15.630Z,43.30
2018-05-21T16:20:43.741Z,43.30
2018-05-21T16:23:11.382Z,43.20
2018-05-21T16:25:38.892Z,43.50
2018-05-21T16:28:06.501Z,43.70
2018-05-21T16:30:33.990Z,42.80
2018-05-21T16:33:01.494Z,43.20
2018-05-21T16:35:29.721Z,44.10
2018-05-21T16:37:57.674Z,44.00
2018-05-21T16:40:25.331Z,43.80
2018-05-21T16:42:52.821Z,43.60
2018-05-21T16:45:20.410Z,43.70
2018-05-21T16:47:49.100Z,44.10
2018-05-21T16:50:17.410Z,44.60
2018-05-21T16:52:44.760Z,44.50
2018-05-21T16:55:12.381Z,44.50
2018-05-21T16:57:41.009Z,43.70
2018-05-21T17:00:08.558Z,43.70
2018-05-21T17:02:36.313Z,43.60
2018-05-21T17:05:05.111Z,43.30
2018-05-21T17:07:32.351Z,43.30
2018-05-21T17:09:59.992Z,43.50
2018-05-21T17:12:28.610Z,43.30
2018-05-21T17:14:55.969Z,43.30
2018-05-21T17:17:23.460Z,43.10
2018-05-21T17:19:50.682Z,42.60
2018-05-21T17:22:18.271Z,42.90
2018-05-21T17:24:45.751Z,42.60
2018-05-21T17:27:13.169Z,42.80
2018-05-21T17:29:40.771Z,42.70
2018-05-21T17:32:09.220Z,43.30
2018-05-21T17:34:36.813Z,43.20
2018-05-21T17:37:04.269Z,42.90
2018-05-21T17:39:31.577Z,43.00
2018-05-21T17:41:59.039Z,43.70
2018-05-21T17:44:26.109Z,43.30
2018-05-21T17:46:53.286Z,44.00
2018-05-21T17:49:20.361Z,43.50
2018-05-21T17:51:47.837Z,43.60
2018-05-21T17:54:15.362Z,43.80
2018-05-21T17:56:42.779Z,43.90
2018-05-21T17:59:10.250Z,44.00
2018-05-21T18:01:38.180Z,44.70
2018-05-21T18:04:05.680Z,44.70
2018-05-21T18:06:34.209Z,45.30
2018-05-21T18:09:01.901Z,45.30
2018-05-21T18:11:29.351Z,45.60
2018-05-21T18:13:56.771Z,45.80
2018-05-21T18:16:24.603Z,46.50
2018-05-21T18:18:53.085Z,48.00
2018-05-21T18:21:20.638Z,48.00
2018-05-21T18:23:48.270Z,48.60
2018-05-21T18:26:15.861Z,49.50
2018-05-21T18:28:43.221Z,49.80
2018-05-21T18:31:11.921Z,50.70
2018-05-21T18:33:39.271Z,50.70
2018-05-21T18:36:07.213Z,51.10
2018-05-21T18:38:34.450Z,51.60
2018-05-21T18:41:02.044Z,52.20
2018-05-21T18:43:29.490Z,52.60
2018-05-21T18:45:57.914Z,53.30
2018-05-21T18:48:25.737Z,53.20
2018-05-21T18:50:53.291Z,53.70
2018-05-21T18:53:21.710Z,54.50
2018-05-21T18:55:49.062Z,54.50
2018-05-21T18:58:16.618Z,55.00
2018-05-21T19:00:44.341Z,55.30
2018-05-21T19:03:12.211Z,55.60
2018-05-21T19:05:39.751Z,56.00
2018-05-21T19:08:08.770Z,56.30
2018-05-21T19:10:36.460Z,56.60
2018-05-21T19:13:04.210Z,56.70
2018-05-21T19:15:31.951Z,57.00
2018-05-21T19:17:59.462Z,57.00
2018-05-21T19:20:27.621Z,57.60
2018-05-21T19:22:55.312Z,57.60
2018-05-21T19:25:23.722Z,57.40
2018-05-21T19:27:51.221Z,57.30
2018-05-21T19:30:19.131Z,57.90
2018-05-21T19:32:46.660Z,57.90
2018-05-21T19:35:14.974Z,58.20
2018-05-21T19:37:43.019Z,58.20
2018-05-21T19:40:10.723Z,58.40
2018-05-21T19:42:38.781Z,59.10
2018-05-21T19:45:08.692Z,59.00
2018-05-21T19:47:36.620Z,59.20
2018-05-21T19:50:04.370Z,59.40
2018-05-21T19:52:32.201Z,59.60
2018-05-21T19:54:59.654Z,59.80
2018-05-21T19:57:27.281Z,60.30
2018-05-21T19:59:54.753Z,60.60
2018-05-21T20:02:23.751Z,60.80
2018-05-21T20:04:51.173Z,61.20
2018-05-21T20:07:18.628Z,61.80
2018-05-21T20:09:46.091Z,61.90
2018-05-21T20:12:13.864Z,62.10
2018-05-21T20:14:41.181Z,62.80
2018-05-21T20:17:11.212Z,62.80
2018-05-21T20:19:39.701Z,63.00
2018-05-21T20:22:07.801Z,64.30
2018-05-21T20:24:38.142Z,63.90
2018-05-21T20:27:06.361Z,63.70
2018-05-21T20:29:34.610Z,63.70
2018-05-21T20:32:05.142Z,64.40
2018-05-21T20:34:32.391Z,64.10
2018-05-21T20:36:59.970Z,64.10
2018-05-21T20:39:27.912Z,64.60
2018-05-21T20:41:55.991Z,65.30
2018-05-21T20:44:23.514Z,65.30
2018-05-21T20:46:51.182Z,65.70
2018-05-21T20:49:18.561Z,66.10
2018-05-21T20:51:51.929Z,66.60
2018-05-21T20:54:19.861Z,66.60
2018-05-21T20:56:47.141Z,66.80
2018-05-21T20:59:14.561Z,67.20
2018-05-21T21:01:42.091Z,67.20
2018-05-21T21:04:09.650Z,67.70
2018-05-21T21:06:37.060Z,68.10
2018-05-21T21:09:04.648Z,68.00
2018-05-21T21:11:31.950Z,68.30
2018-05-21T21:14:00.581Z,68.30
2018-05-21T21:16:28.131Z,68.90
2018-05-21T21:18:55.730Z,68.90
2018-05-21T21:21:24.990Z,69.10
2018-05-21T21:23:53.981Z,69.30
2018-05-21T21:26:21.311Z,69.40
2018-05-21T21:28:49.371Z,69.70
2018-05-21T21:31:16.751Z,69.70
2018-05-21T21:33:45.050Z,70.00
2018-05-21T21:36:12.401Z,70.00
2018-05-21T21:38:40.931Z,70.10
2018-05-21T21:41:07.942Z,70.30
2018-05-21T21:43:35.712Z,70.20
2018-05-21T21:46:03.300Z,70.40
2018-05-21T21:48:30.672Z,70.60
2018-05-21T21:50:59.440Z,71.30
2018-05-21T21:53:27.019Z,70.80
2018-05-21T21:55:54.450Z,71.20
2018-05-21T21:58:21.941Z,71.20
2018-05-21T22:00:50.292Z,71.30
2018-05-21T22:03:17.553Z,71.40
2018-05-21T22:05:45.054Z,71.80
2018-05-21T22:08:12.960Z,72.10
2018-05-21T22:10:40.281Z,72.50
2018-05-21T22:13:08.310Z,72.60
2018-05-21T22:15:35.720Z,72.90
2018-05-21T22:18:03.332Z,74.10
2018-05-21T22:20:31.462Z,74.10
2018-05-21T22:22:58.860Z,74.00
2018-05-21T22:25:26.950Z,74.60
2018-05-21T22:27:54.461Z,74.60
2018-05-21T22:30:21.851Z,74.90
2018-05-21T22:32:49.830Z,75.30
2018-05-21T22:35:17.692Z,75.20
2018-05-21T22:37:46.140Z,75.50
2018-05-21T22:40:13.500Z,75.50
2018-05-21T22:45:15.251Z,75.50
2018-05-21T22:47:42.892Z,75.50
2018-05-21T22:50:10.160Z,75.60
2018-05-21T22:52:37.610Z,75.60
2018-05-21T22:55:05.973Z,75.80
2018-05-21T22:57:33.304Z,75.90
2018-05-21T23:00:01.695Z,76.10
2018-05-21T23:02:29.160Z,76.20
2018-05-21T23:04:56.460Z,76.30
2018-05-21T23:07:23.710Z,76.40
2018-05-21T23:09:51.371Z,76.40
2018-05-21T23:12:18.630Z,76.40
2018-05-21T23:14:46.163Z,76.20
2018-05-21T23:17:14.590Z,76.30
2018-05-21T23:19:42.770Z,76.30
2018-05-21T23:22:12.849Z,76.30
2018-05-21T23:24:40.512Z,76.30
2018-05-21T23:27:07.820Z,76.50
2018-05-21T23:29:38.650Z,76.60
2018-05-21T23:32:09.213Z,76.90
2018-05-21T23:34:37.439Z,76.80
2018-05-21T23:37:07.280Z,77.00
2018-05-21T23:39:38.679Z,77.00
2018-05-21T23:42:05.974Z,77.10
2018-05-21T23:44:33.380Z,77.10
2018-05-21T23:47:01.301Z,77.10
2018-05-21T23:49:30.981Z,77.10
2018-05-21T23:51:58.970Z,77.20
2018-05-21T23:54:27.311Z,77.20
2018-05-21T23:56:54.649Z,77.10
2018-05-21T23:59:22.159Z,77.10
